sensor_id;sensor_type;location;lat;lon;timestamp;P1;durP1;ratioP1;P2;durP2;ratioP2
49488;SDS011;35382;51.484;11.476;2023-05-10T00:01:12;9.73;;;6.22;;
49488;SDS011;35382;51.484;11.476;2023-05-10T00:02:53;9.07;;;5.57;;
49488;SDS011;35382;51.484;11.476;2023-05-10T00:04:34;8.25;;;5.20;;
49488;SDS011;35382;51.484;11.476;2023-05-10T00:06:15;9.65;;;4.80;;
49488;SDS011;35382;51.484;11.476;2023-05-10T00:07:56;8.18;;;5.00;;
49488;SDS011;35382;51.484;11.476;2023-05-10T00:09:37;8.55;;;5.43;;
49488;SDS011;35382;51.484;11.476;2023-05-10T00:11:18;10.07;;;4.97;;
49488;SDS011;35382;51.484;11.476;2023-05-10T00:12:59;6.60;;;4.97;;
49488;SDS011;35382;51.484;11.476;2023-05-10T00:14:40;7.05;;;5.38;;
49488;SDS011;35382;51.484;11.476;2023-05-10T00:16:21;7.80;;;5.00;;
49488;SDS011;35382;51.484;11.476;2023-05-10T00:18:01;7.88;;;4.93;;
49488;SDS011;35382;51.484;11.476;2023-05-10T00:19:42;10.02;;;5.15;;
49488;SDS011;35382;51.484;11.476;2023-05-10T00:21:23;9.10;;;5.38;;
49488;SDS011;35382;51.484;11.476;2023-05-10T00:23:04;7.70;;;5.10;;
49488;SDS011;35382;51.484;11.476;2023-05-10T00:24:45;7.00;;;4.80;;
49488;SDS011;35382;51.484;11.476;2023-05-10T00:26:26;7.32;;;5.57;;
49488;SDS011;35382;51.484;11.476;2023-05-10T00:28:09;7.53;;;4.85;;
49488;SDS011;35382;51.484;11.476;2023-05-10T00:29:51;9.57;;;5.10;;
49488;SDS011;35382;51.484;11.476;2023-05-10T00:31:33;9.50;;;5.13;;
49488;SDS011;35382;51.484;11.476;2023-05-10T00:33:14;7.65;;;5.25;;
49488;SDS011;35382;51.484;11.476;2023-05-10T00:34:54;8.80;;;5.25;;
49488;SDS011;35382;51.484;11.476;2023-05-10T00:36:35;8.15;;;5.22;;
49488;SDS011;35382;51.484;11.476;2023-05-10T00:38:16;7.70;;;5.70;;
49488;SDS011;35382;51.484;11.476;2023-05-10T00:39:57;10.07;;;5.93;;
49488;SDS011;35382;51.484;11.476;2023-05-10T00:41:38;9.32;;;6.13;;
49488;SDS011;35382;51.484;11.476;2023-05-10T00:43:21;10.35;;;6.55;;
49488;SDS011;35382;51.484;11.476;2023-05-10T00:45:02;10.18;;;6.80;;
49488;SDS011;35382;51.484;11.476;2023-05-10T00:46:44;10.10;;;6.90;;
49488;SDS011;35382;51.484;11.476;2023-05-10T00:48:26;10.20;;;7.07;;
49488;SDS011;35382;51.484;11.476;2023-05-10T00:50:07;10.90;;;7.38;;
49488;SDS011;35382;51.484;11.476;2023-05-10T00:51:49;10.48;;;7.40;;
49488;SDS011;35382;51.484;11.476;2023-05-10T00:53:30;10.63;;;7.43;;
49488;SDS011;35382;51.484;11.476;2023-05-10T00:55:13;10.65;;;7.28;;
49488;SDS011;35382;51.484;11.476;2023-05-10T00:56:54;10.13;;;7.57;;
49488;SDS011;35382;51.484;11.476;2023-05-10T00:58:37;10.15;;;7.30;;
49488;SDS011;35382;51.484;11.476;2023-05-10T01:00:19;10.60;;;7.53;;
49488;SDS011;35382;51.484;11.476;2023-05-10T01:02:01;10.05;;;7.63;;
49488;SDS011;35382;51.484;11.476;2023-05-10T01:03:44;10.85;;;7.63;;
49488;SDS011;35382;51.484;11.476;2023-05-10T01:05:25;10.68;;;7.30;;
49488;SDS011;35382;51.484;11.476;2023-05-10T01:07:07;8.40;;;6.40;;
49488;SDS011;35382;51.484;11.476;2023-05-10T01:08:48;9.68;;;7.50;;
49488;SDS011;35382;51.484;11.476;2023-05-10T01:10:30;11.68;;;7.72;;
49488;SDS011;35382;51.484;11.476;2023-05-10T01:12:11;12.05;;;7.43;;
49488;SDS011;35382;51.484;11.476;2023-05-10T01:13:55;11.45;;;7.45;;
49488;SDS011;35382;51.484;11.476;2023-05-10T01:15:38;12.40;;;8.20;;
49488;SDS011;35382;51.484;11.476;2023-05-10T01:17:20;9.88;;;6.90;;
49488;SDS011;35382;51.484;11.476;2023-05-10T01:19:04;9.40;;;7.13;;
49488;SDS011;35382;51.484;11.476;2023-05-10T01:21:16;10.93;;;6.97;;
49488;SDS011;35382;51.484;11.476;2023-05-10T01:23:10;9.88;;;7.43;;
49488;SDS011;35382;51.484;11.476;2023-05-10T01:29:47;11.48;;;8.30;;
49488;SDS011;35382;51.484;11.476;2023-05-10T01:33:18;11.25;;;7.85;;
49488;SDS011;35382;51.484;11.476;2023-05-10T01:35:09;11.38;;;8.52;;
49488;SDS011;35382;51.484;11.476;2023-05-10T01:36:56;11.45;;;8.48;;
49488;SDS011;35382;51.484;11.476;2023-05-10T01:38:54;11.18;;;7.93;;
49488;SDS011;35382;51.484;11.476;2023-05-10T01:41:07;14.75;;;9.30;;
49488;SDS011;35382;51.484;11.476;2023-05-10T01:42:46;11.02;;;8.32;;
49488;SDS011;35382;51.484;11.476;2023-05-10T01:44:40;11.45;;;8.63;;
49488;SDS011;35382;51.484;11.476;2023-05-10T01:46:38;10.88;;;8.13;;
49488;SDS011;35382;51.484;11.476;2023-05-10T01:48:20;11.25;;;8.32;;
49488;SDS011;35382;51.484;11.476;2023-05-10T01:50:04;11.88;;;7.82;;
49488;SDS011;35382;51.484;11.476;2023-05-10T01:51:48;12.10;;;8.57;;
49488;SDS011;35382;51.484;11.476;2023-05-10T01:53:35;10.93;;;8.38;;
49488;SDS011;35382;51.484;11.476;2023-05-10T01:55:19;13.85;;;8.73;;
49488;SDS011;35382;51.484;11.476;2023-05-10T01:57:03;10.30;;;7.47;;
49488;SDS011;35382;51.484;11.476;2023-05-10T01:58:46;11.07;;;8.10;;
49488;SDS011;35382;51.484;11.476;2023-05-10T02:00:29;10.60;;;8.05;;
49488;SDS011;35382;51.484;11.476;2023-05-10T02:02:11;11.95;;;7.72;;
49488;SDS011;35382;51.484;11.476;2023-05-10T02:03:55;11.15;;;8.15;;
49488;SDS011;35382;51.484;11.476;2023-05-10T02:05:38;13.00;;;8.25;;
49488;SDS011;35382;51.484;11.476;2023-05-10T02:07:21;11.40;;;8.10;;
49488;SDS011;35382;51.484;11.476;2023-05-10T02:09:03;11.80;;;7.97;;
49488;SDS011;35382;51.484;11.476;2023-05-10T02:10:46;10.75;;;7.70;;
49488;SDS011;35382;51.484;11.476;2023-05-10T02:12:29;11.13;;;7.78;;
49488;SDS011;35382;51.484;11.476;2023-05-10T02:14:12;10.05;;;7.03;;
49488;SDS011;35382;51.484;11.476;2023-05-10T02:15:56;10.10;;;7.57;;
49488;SDS011;35382;51.484;11.476;2023-05-10T02:17:38;9.00;;;7.38;;
49488;SDS011;35382;51.484;11.476;2023-05-10T02:19:20;11.13;;;7.70;;
49488;SDS011;35382;51.484;11.476;2023-05-10T02:21:02;11.02;;;8.18;;
49488;SDS011;35382;51.484;11.476;2023-05-10T02:22:44;10.75;;;7.85;;
49488;SDS011;35382;51.484;11.476;2023-05-10T02:24:27;10.82;;;7.47;;
49488;SDS011;35382;51.484;11.476;2023-05-10T02:26:09;11.10;;;7.75;;
49488;SDS011;35382;51.484;11.476;2023-05-10T02:27:53;10.88;;;7.47;;
49488;SDS011;35382;51.484;11.476;2023-05-10T02:29:36;11.90;;;8.57;;
49488;SDS011;35382;51.484;11.476;2023-05-10T02:31:17;11.57;;;7.50;;
49488;SDS011;35382;51.484;11.476;2023-05-10T02:33:00;11.18;;;8.00;;
49488;SDS011;35382;51.484;11.476;2023-05-10T02:34:43;13.05;;;7.90;;
49488;SDS011;35382;51.484;11.476;2023-05-10T02:36:28;12.57;;;7.95;;
49488;SDS011;35382;51.484;11.476;2023-05-10T02:38:10;10.88;;;8.15;;
49488;SDS011;35382;51.484;11.476;2023-05-10T02:39:52;10.45;;;7.68;;
49488;SDS011;35382;51.484;11.476;2023-05-10T02:41:35;9.63;;;7.95;;
49488;SDS011;35382;51.484;11.476;2023-05-10T02:43:17;11.88;;;7.50;;
49488;SDS011;35382;51.484;11.476;2023-05-10T02:45:00;9.43;;;7.13;;
49488;SDS011;35382;51.484;11.476;2023-05-10T02:46:43;11.77;;;7.60;;
49488;SDS011;35382;51.484;11.476;2023-05-10T02:48:24;13.40;;;7.93;;
49488;SDS011;35382;51.484;11.476;2023-05-10T02:50:05;11.27;;;7.05;;
49488;SDS011;35382;51.484;11.476;2023-05-10T02:51:48;11.55;;;7.43;;
49488;SDS011;35382;51.484;11.476;2023-05-10T02:53:38;11.38;;;7.70;;
49488;SDS011;35382;51.484;11.476;2023-05-10T02:55:22;9.80;;;7.35;;
49488;SDS011;35382;51.484;11.476;2023-05-10T02:57:07;11.05;;;7.18;;
49488;SDS011;35382;51.484;11.476;2023-05-10T02:58:55;8.75;;;6.82;;
49488;SDS011;35382;51.484;11.476;2023-05-10T03:00:36;9.10;;;7.05;;
49488;SDS011;35382;51.484;11.476;2023-05-10T03:02:17;10.18;;;7.03;;
49488;SDS011;35382;51.484;11.476;2023-05-10T03:03:58;8.70;;;6.40;;
49488;SDS011;35382;51.484;11.476;2023-05-10T03:05:39;12.95;;;7.57;;
49488;SDS011;35382;51.484;11.476;2023-05-10T03:07:20;8.95;;;7.03;;
49488;SDS011;35382;51.484;11.476;2023-05-10T03:09:02;11.70;;;6.75;;
49488;SDS011;35382;51.484;11.476;2023-05-10T03:10:48;11.23;;;7.15;;
49488;SDS011;35382;51.484;11.476;2023-05-10T03:12:47;9.15;;;7.00;;
49488;SDS011;35382;51.484;11.476;2023-05-10T03:17:00;10.90;;;7.60;;
49488;SDS011;35382;51.484;11.476;2023-05-10T03:18:49;9.68;;;6.50;;
49488;SDS011;35382;51.484;11.476;2023-05-10T03:20:35;11.27;;;6.87;;
49488;SDS011;35382;51.484;11.476;2023-05-10T03:22:21;9.45;;;6.25;;
49488;SDS011;35382;51.484;11.476;2023-05-10T03:24:07;10.27;;;6.75;;
49488;SDS011;35382;51.484;11.476;2023-05-10T03:25:53;8.57;;;6.20;;
49488;SDS011;35382;51.484;11.476;2023-05-10T03:27:35;8.20;;;6.32;;
49488;SDS011;35382;51.484;11.476;2023-05-10T03:29:16;8.25;;;6.28;;
49488;SDS011;35382;51.484;11.476;2023-05-10T03:30:58;8.25;;;6.10;;
49488;SDS011;35382;51.484;11.476;2023-05-10T03:32:40;8.00;;;5.82;;
49488;SDS011;35382;51.484;11.476;2023-05-10T03:34:24;8.77;;;6.22;;
49488;SDS011;35382;51.484;11.476;2023-05-10T03:36:06;9.13;;;6.13;;
49488;SDS011;35382;51.484;11.476;2023-05-10T03:37:47;9.85;;;6.10;;
49488;SDS011;35382;51.484;11.476;2023-05-10T03:39:28;9.90;;;6.50;;
49488;SDS011;35382;51.484;11.476;2023-05-10T03:41:12;8.45;;;5.97;;
49488;SDS011;35382;51.484;11.476;2023-05-10T03:42:53;7.72;;;5.97;;
49488;SDS011;35382;51.484;11.476;2023-05-10T03:44:34;9.80;;;5.32;;
49488;SDS011;35382;51.484;11.476;2023-05-10T03:46:15;8.70;;;6.20;;
49488;SDS011;35382;51.484;11.476;2023-05-10T03:47:56;9.38;;;6.30;;
49488;SDS011;35382;51.484;11.476;2023-05-10T03:49:37;9.40;;;6.50;;
49488;SDS011;35382;51.484;11.476;2023-05-10T03:51:18;7.22;;;4.97;;
49488;SDS011;35382;51.484;11.476;2023-05-10T03:52:59;8.98;;;5.75;;
49488;SDS011;35382;51.484;11.476;2023-05-10T03:54:42;10.65;;;5.63;;
49488;SDS011;35382;51.484;11.476;2023-05-10T03:56:23;7.82;;;5.40;;
49488;SDS011;35382;51.484;11.476;2023-05-10T03:58:04;6.78;;;4.95;;
49488;SDS011;35382;51.484;11.476;2023-05-10T03:59:46;8.18;;;5.55;;
49488;SDS011;35382;51.484;11.476;2023-05-10T04:01:27;8.35;;;5.32;;
49488;SDS011;35382;51.484;11.476;2023-05-10T04:03:08;7.55;;;5.40;;
49488;SDS011;35382;51.484;11.476;2023-05-10T04:04:50;8.43;;;5.22;;
49488;SDS011;35382;51.484;11.476;2023-05-10T04:06:31;10.10;;;5.43;;
49488;SDS011;35382;51.484;11.476;2023-05-10T04:08:12;8.20;;;6.00;;
49488;SDS011;35382;51.484;11.476;2023-05-10T04:09:53;7.00;;;5.00;;
49488;SDS011;35382;51.484;11.476;2023-05-10T04:11:36;7.28;;;4.80;;
49488;SDS011;35382;51.484;11.476;2023-05-10T04:13:17;9.48;;;4.97;;
49488;SDS011;35382;51.484;11.476;2023-05-10T04:15:01;7.40;;;4.97;;
49488;SDS011;35382;51.484;11.476;2023-05-10T04:16:42;7.82;;;5.13;;
49488;SDS011;35382;51.484;11.476;2023-05-10T04:18:23;6.97;;;4.85;;
49488;SDS011;35382;51.484;11.476;2023-05-10T04:20:04;6.47;;;4.45;;
49488;SDS011;35382;51.484;11.476;2023-05-10T04:21:45;6.55;;;4.63;;
49488;SDS011;35382;51.484;11.476;2023-05-10T04:23:26;7.13;;;5.10;;
49488;SDS011;35382;51.484;11.476;2023-05-10T04:25:08;6.43;;;4.85;;
49488;SDS011;35382;51.484;11.476;2023-05-10T04:26:49;7.97;;;5.30;;
49488;SDS011;35382;51.484;11.476;2023-05-10T04:28:30;7.13;;;4.97;;
49488;SDS011;35382;51.484;11.476;2023-05-10T04:30:12;6.50;;;4.95;;
49488;SDS011;35382;51.484;11.476;2023-05-10T04:31:53;8.02;;;4.85;;
49488;SDS011;35382;51.484;11.476;2023-05-10T04:33:34;9.60;;;5.40;;
49488;SDS011;35382;51.484;11.476;2023-05-10T04:35:16;8.52;;;5.28;;
49488;SDS011;35382;51.484;11.476;2023-05-10T04:36:56;7.82;;;5.03;;
49488;SDS011;35382;51.484;11.476;2023-05-10T04:38:37;9.57;;;5.30;;
49488;SDS011;35382;51.484;11.476;2023-05-10T04:40:20;8.18;;;5.03;;
49488;SDS011;35382;51.484;11.476;2023-05-10T04:42:02;8.23;;;5.18;;
49488;SDS011;35382;51.484;11.476;2023-05-10T04:43:44;9.77;;;5.22;;
49488;SDS011;35382;51.484;11.476;2023-05-10T04:45:25;9.10;;;5.22;;
49488;SDS011;35382;51.484;11.476;2023-05-10T04:47:06;6.72;;;5.03;;
49488;SDS011;35382;51.484;11.476;2023-05-10T04:48:47;8.23;;;5.40;;
49488;SDS011;35382;51.484;11.476;2023-05-10T04:50:28;8.65;;;5.30;;
49488;SDS011;35382;51.484;11.476;2023-05-10T04:52:10;8.15;;;5.72;;
49488;SDS011;35382;51.484;11.476;2023-05-10T04:53:52;7.85;;;5.60;;
49488;SDS011;35382;51.484;11.476;2023-05-10T04:55:33;9.35;;;5.60;;
49488;SDS011;35382;51.484;11.476;2023-05-10T04:57:14;8.00;;;5.30;;
49488;SDS011;35382;51.484;11.476;2023-05-10T04:58:55;7.30;;;5.40;;
49488;SDS011;35382;51.484;11.476;2023-05-10T05:00:37;8.68;;;5.40;;
49488;SDS011;35382;51.484;11.476;2023-05-10T05:02:18;8.63;;;6.07;;
49488;SDS011;35382;51.484;11.476;2023-05-10T05:03:59;9.20;;;5.30;;
49488;SDS011;35382;51.484;11.476;2023-05-10T05:05:40;8.55;;;5.40;;
49488;SDS011;35382;51.484;11.476;2023-05-10T05:07:21;8.52;;;6.55;;
49488;SDS011;35382;51.484;11.476;2023-05-10T05:09:02;8.20;;;5.35;;
49488;SDS011;35382;51.484;11.476;2023-05-10T05:10:43;9.68;;;5.80;;
49488;SDS011;35382;51.484;11.476;2023-05-10T05:12:24;9.77;;;5.90;;
49488;SDS011;35382;51.484;11.476;2023-05-10T05:14:05;8.90;;;5.35;;
49488;SDS011;35382;51.484;11.476;2023-05-10T05:15:47;8.52;;;5.00;;
49488;SDS011;35382;51.484;11.476;2023-05-10T05:17:29;11.05;;;5.45;;
49488;SDS011;35382;51.484;11.476;2023-05-10T05:19:10;7.53;;;5.47;;
49488;SDS011;35382;51.484;11.476;2023-05-10T05:20:51;7.57;;;5.28;;
49488;SDS011;35382;51.484;11.476;2023-05-10T05:22:35;8.35;;;5.38;;
49488;SDS011;35382;51.484;11.476;2023-05-10T05:24:16;8.80;;;5.57;;
49488;SDS011;35382;51.484;11.476;2023-05-10T05:25:57;8.15;;;5.28;;
49488;SDS011;35382;51.484;11.476;2023-05-10T05:27:38;8.65;;;5.90;;
49488;SDS011;35382;51.484;11.476;2023-05-10T05:29:19;9.45;;;5.50;;
49488;SDS011;35382;51.484;11.476;2023-05-10T05:31:00;12.63;;;5.72;;
49488;SDS011;35382;51.484;11.476;2023-05-10T05:32:41;7.75;;;5.38;;
49488;SDS011;35382;51.484;11.476;2023-05-10T05:34:22;8.40;;;5.32;;
49488;SDS011;35382;51.484;11.476;2023-05-10T05:36:04;8.85;;;5.45;;
49488;SDS011;35382;51.484;11.476;2023-05-10T05:37:46;7.82;;;5.30;;
49488;SDS011;35382;51.484;11.476;2023-05-10T05:39:27;9.68;;;5.40;;
49488;SDS011;35382;51.484;11.476;2023-05-10T05:41:09;8.88;;;5.25;;
49488;SDS011;35382;51.484;11.476;2023-05-10T05:42:50;8.30;;;5.47;;
49488;SDS011;35382;51.484;11.476;2023-05-10T05:44:31;8.35;;;5.30;;
49488;SDS011;35382;51.484;11.476;2023-05-10T05:46:12;9.02;;;5.10;;
49488;SDS011;35382;51.484;11.476;2023-05-10T05:47:53;9.27;;;5.43;;
49488;SDS011;35382;51.484;11.476;2023-05-10T05:49:34;9.23;;;5.20;;
49488;SDS011;35382;51.484;11.476;2023-05-10T05:51:15;8.30;;;5.22;;
49488;SDS011;35382;51.484;11.476;2023-05-10T05:52:56;9.23;;;5.25;;
49488;SDS011;35382;51.484;11.476;2023-05-10T05:54:37;8.00;;;5.22;;
49488;SDS011;35382;51.484;11.476;2023-05-10T05:56:18;8.38;;;5.22;;
49488;SDS011;35382;51.484;11.476;2023-05-10T05:58:04;9.20;;;5.80;;
49488;SDS011;35382;51.484;11.476;2023-05-10T05:59:45;10.27;;;5.40;;
49488;SDS011;35382;51.484;11.476;2023-05-10T06:01:26;10.18;;;5.38;;
49488;SDS011;35382;51.484;11.476;2023-05-10T06:03:09;8.48;;;5.85;;
49488;SDS011;35382;51.484;11.476;2023-05-10T06:04:50;7.40;;;5.30;;
49488;SDS011;35382;51.484;11.476;2023-05-10T06:06:32;7.45;;;5.38;;
49488;SDS011;35382;51.484;11.476;2023-05-10T06:08:13;7.90;;;5.05;;
49488;SDS011;35382;51.484;11.476;2023-05-10T06:09:57;9.68;;;5.10;;
49488;SDS011;35382;51.484;11.476;2023-05-10T06:11:41;7.63;;;4.97;;
49488;SDS011;35382;51.484;11.476;2023-05-10T06:13:22;7.70;;;5.30;;
49488;SDS011;35382;51.484;11.476;2023-05-10T06:15:03;8.98;;;4.97;;
49488;SDS011;35382;51.484;11.476;2023-05-10T06:16:47;10.40;;;5.63;;
49488;SDS011;35382;51.484;11.476;2023-05-10T06:18:28;8.73;;;5.47;;
49488;SDS011;35382;51.484;11.476;2023-05-10T06:20:13;8.38;;;4.95;;
49488;SDS011;35382;51.484;11.476;2023-05-10T06:21:54;6.82;;;5.30;;
49488;SDS011;35382;51.484;11.476;2023-05-10T06:23:38;6.97;;;5.22;;
49488;SDS011;35382;51.484;11.476;2023-05-10T06:25:19;7.68;;;5.50;;
49488;SDS011;35382;51.484;11.476;2023-05-10T06:27:01;8.13;;;5.40;;
49488;SDS011;35382;51.484;11.476;2023-05-10T06:28:44;9.55;;;5.05;;
49488;SDS011;35382;51.484;11.476;2023-05-10T06:32:11;8.52;;;5.50;;
49488;SDS011;35382;51.484;11.476;2023-05-10T06:33:52;8.00;;;5.10;;
49488;SDS011;35382;51.484;11.476;2023-05-10T06:35:33;7.68;;;5.03;;
49488;SDS011;35382;51.484;11.476;2023-05-10T06:37:14;9.82;;;5.10;;
49488;SDS011;35382;51.484;11.476;2023-05-10T06:38:55;9.73;;;4.75;;
49488;SDS011;35382;51.484;11.476;2023-05-10T06:40:36;7.65;;;4.90;;
49488;SDS011;35382;51.484;11.476;2023-05-10T06:42:21;8.25;;;5.10;;
49488;SDS011;35382;51.484;11.476;2023-05-10T06:44:02;6.95;;;5.00;;
49488;SDS011;35382;51.484;11.476;2023-05-10T06:45:44;9.00;;;5.53;;
49488;SDS011;35382;51.484;11.476;2023-05-10T06:47:25;6.75;;;4.95;;
49488;SDS011;35382;51.484;11.476;2023-05-10T06:49:06;6.60;;;4.78;;
49488;SDS011;35382;51.484;11.476;2023-05-10T06:50:47;10.30;;;5.15;;
49488;SDS011;35382;51.484;11.476;2023-05-10T06:52:28;8.40;;;5.47;;
49488;SDS011;35382;51.484;11.476;2023-05-10T06:54:10;9.45;;;5.10;;
49488;SDS011;35382;51.484;11.476;2023-05-10T06:55:57;9.43;;;5.22;;
49488;SDS011;35382;51.484;11.476;2023-05-10T06:57:37;8.75;;;4.97;;
49488;SDS011;35382;51.484;11.476;2023-05-10T06:59:18;9.20;;;4.93;;
49488;SDS011;35382;51.484;11.476;2023-05-10T07:01:03;7.93;;;4.85;;
49488;SDS011;35382;51.484;11.476;2023-05-10T07:02:47;7.32;;;5.07;;
49488;SDS011;35382;51.484;11.476;2023-05-10T07:04:34;7.68;;;5.20;;
49488;SDS011;35382;51.484;11.476;2023-05-10T07:06:16;8.85;;;4.95;;
49488;SDS011;35382;51.484;11.476;2023-05-10T07:07:57;9.32;;;4.75;;
49488;SDS011;35382;51.484;11.476;2023-05-10T07:09:38;9.65;;;4.80;;
49488;SDS011;35382;51.484;11.476;2023-05-10T07:11:18;10.43;;;4.85;;
49488;SDS011;35382;51.484;11.476;2023-05-10T07:12:59;10.02;;;5.07;;
49488;SDS011;35382;51.484;11.476;2023-05-10T07:14:45;7.20;;;4.68;;
49488;SDS011;35382;51.484;11.476;2023-05-10T07:16:29;6.93;;;4.70;;
49488;SDS011;35382;51.484;11.476;2023-05-10T07:18:13;7.85;;;4.70;;
49488;SDS011;35382;51.484;11.476;2023-05-10T07:19:53;8.30;;;4.93;;
49488;SDS011;35382;51.484;11.476;2023-05-10T07:21:34;8.30;;;4.95;;
49488;SDS011;35382;51.484;11.476;2023-05-10T07:23:20;8.30;;;4.53;;
49488;SDS011;35382;51.484;11.476;2023-05-10T07:25:01;7.22;;;5.10;;
49488;SDS011;35382;51.484;11.476;2023-05-10T07:26:42;7.47;;;4.63;;
49488;SDS011;35382;51.484;11.476;2023-05-10T07:28:27;7.60;;;4.45;;
49488;SDS011;35382;51.484;11.476;2023-05-10T07:30:08;7.35;;;4.93;;
49488;SDS011;35382;51.484;11.476;2023-05-10T07:31:49;6.25;;;4.53;;
49488;SDS011;35382;51.484;11.476;2023-05-10T07:33:30;7.07;;;4.53;;
49488;SDS011;35382;51.484;11.476;2023-05-10T07:35:11;6.93;;;4.30;;
49488;SDS011;35382;51.484;11.476;2023-05-10T07:36:52;7.35;;;4.65;;
49488;SDS011;35382;51.484;11.476;2023-05-10T07:38:33;7.93;;;4.70;;
49488;SDS011;35382;51.484;11.476;2023-05-10T07:40:16;9.68;;;4.80;;
49488;SDS011;35382;51.484;11.476;2023-05-10T07:41:57;7.07;;;4.65;;
49488;SDS011;35382;51.484;11.476;2023-05-10T07:43:37;7.47;;;4.70;;
49488;SDS011;35382;51.484;11.476;2023-05-10T07:45:18;6.63;;;4.65;;
49488;SDS011;35382;51.484;11.476;2023-05-10T07:47:01;9.70;;;5.00;;
49488;SDS011;35382;51.484;11.476;2023-05-10T07:48:42;7.07;;;4.60;;
49488;SDS011;35382;51.484;11.476;2023-05-10T07:50:23;7.57;;;4.70;;
49488;SDS011;35382;51.484;11.476;2023-05-10T07:52:04;6.25;;;4.85;;
49488;SDS011;35382;51.484;11.476;2023-05-10T07:53:45;7.20;;;4.50;;
49488;SDS011;35382;51.484;11.476;2023-05-10T07:55:26;6.03;;;4.05;;
49488;SDS011;35382;51.484;11.476;2023-05-10T07:57:13;7.55;;;5.05;;
49488;SDS011;35382;51.484;11.476;2023-05-10T07:58:55;6.85;;;4.43;;
49488;SDS011;35382;51.484;11.476;2023-05-10T08:00:37;5.70;;;4.03;;
49488;SDS011;35382;51.484;11.476;2023-05-10T08:02:20;7.18;;;4.18;;
49488;SDS011;35382;51.484;11.476;2023-05-10T08:04:01;7.93;;;4.32;;
49488;SDS011;35382;51.484;11.476;2023-05-10T08:05:42;7.57;;;4.43;;
49488;SDS011;35382;51.484;11.476;2023-05-10T08:07:27;6.53;;;4.50;;
49488;SDS011;35382;51.484;11.476;2023-05-10T08:09:08;7.03;;;3.92;;
49488;SDS011;35382;51.484;11.476;2023-05-10T08:10:55;6.68;;;4.35;;
49488;SDS011;35382;51.484;11.476;2023-05-10T08:12:38;6.65;;;4.40;;
49488;SDS011;35382;51.484;11.476;2023-05-10T08:14:19;6.45;;;3.97;;
49488;SDS011;35382;51.484;11.476;2023-05-10T08:16:01;5.70;;;3.63;;
49488;SDS011;35382;51.484;11.476;2023-05-10T08:17:42;6.45;;;3.88;;
49488;SDS011;35382;51.484;11.476;2023-05-10T08:19:23;7.50;;;4.20;;
49488;SDS011;35382;51.484;11.476;2023-05-10T08:21:05;6.15;;;3.95;;
49488;SDS011;35382;51.484;11.476;2023-05-10T08:22:47;6.60;;;3.92;;
49488;SDS011;35382;51.484;11.476;2023-05-10T08:24:29;8.15;;;3.92;;
49488;SDS011;35382;51.484;11.476;2023-05-10T08:26:10;6.28;;;4.40;;
49488;SDS011;35382;51.484;11.476;2023-05-10T08:27:52;6.35;;;4.35;;
49488;SDS011;35382;51.484;11.476;2023-05-10T08:29:32;7.72;;;4.60;;
49488;SDS011;35382;51.484;11.476;2023-05-10T08:31:14;7.43;;;4.43;;
49488;SDS011;35382;51.484;11.476;2023-05-10T08:32:56;7.47;;;5.07;;
49488;SDS011;35382;51.484;11.476;2023-05-10T08:34:37;7.03;;;4.57;;
49488;SDS011;35382;51.484;11.476;2023-05-10T08:36:18;6.22;;;4.72;;
49488;SDS011;35382;51.484;11.476;2023-05-10T08:38:05;6.88;;;4.60;;
49488;SDS011;35382;51.484;11.476;2023-05-10T08:39:48;7.60;;;4.70;;
49488;SDS011;35382;51.484;11.476;2023-05-10T08:41:28;7.32;;;5.07;;
49488;SDS011;35382;51.484;11.476;2023-05-10T08:43:12;6.95;;;4.72;;
49488;SDS011;35382;51.484;11.476;2023-05-10T08:44:55;6.35;;;4.90;;
49488;SDS011;35382;51.484;11.476;2023-05-10T08:46:44;7.03;;;5.10;;
49488;SDS011;35382;51.484;11.476;2023-05-10T08:48:27;7.28;;;4.75;;
49488;SDS011;35382;51.484;11.476;2023-05-10T08:50:09;7.43;;;4.57;;
49488;SDS011;35382;51.484;11.476;2023-05-10T08:51:51;7.95;;;5.47;;
49488;SDS011;35382;51.484;11.476;2023-05-10T08:53:35;6.65;;;5.18;;
49488;SDS011;35382;51.484;11.476;2023-05-10T08:55:22;9.23;;;6.07;;
49488;SDS011;35382;51.484;11.476;2023-05-10T08:57:04;9.27;;;6.10;;
49488;SDS011;35382;51.484;11.476;2023-05-10T08:58:46;7.88;;;5.78;;
49488;SDS011;35382;51.484;11.476;2023-05-10T09:00:29;6.78;;;5.65;;
49488;SDS011;35382;51.484;11.476;2023-05-10T09:02:18;9.30;;;6.40;;
49488;SDS011;35382;51.484;11.476;2023-05-10T09:04:03;8.30;;;5.68;;
49488;SDS011;35382;51.484;11.476;2023-05-10T09:05:45;7.93;;;5.30;;
49488;SDS011;35382;51.484;11.476;2023-05-10T09:07:26;7.25;;;5.65;;
49488;SDS011;35382;51.484;11.476;2023-05-10T09:09:07;9.40;;;6.20;;
49488;SDS011;35382;51.484;11.476;2023-05-10T09:10:52;7.85;;;5.78;;
49488;SDS011;35382;51.484;11.476;2023-05-10T09:12:34;7.95;;;5.78;;
49488;SDS011;35382;51.484;11.476;2023-05-10T09:14:15;7.22;;;5.80;;
49488;SDS011;35382;51.484;11.476;2023-05-10T09:15:57;7.80;;;5.45;;
49488;SDS011;35382;51.484;11.476;2023-05-10T09:17:38;7.20;;;5.10;;
49488;SDS011;35382;51.484;11.476;2023-05-10T09:19:20;7.15;;;5.57;;
49488;SDS011;35382;51.484;11.476;2023-05-10T09:21:03;7.20;;;5.13;;
49488;SDS011;35382;51.484;11.476;2023-05-10T09:22:46;7.90;;;5.43;;
49488;SDS011;35382;51.484;11.476;2023-05-10T09:24:28;6.47;;;5.15;;
49488;SDS011;35382;51.484;11.476;2023-05-10T09:26:10;7.22;;;5.18;;
49488;SDS011;35382;51.484;11.476;2023-05-10T09:27:54;8.25;;;6.10;;
49488;SDS011;35382;51.484;11.476;2023-05-10T09:29:38;8.30;;;6.05;;
49488;SDS011;35382;51.484;11.476;2023-05-10T09:31:23;6.95;;;5.43;;
49488;SDS011;35382;51.484;11.476;2023-05-10T09:33:06;8.25;;;5.88;;
49488;SDS011;35382;51.484;11.476;2023-05-10T09:34:49;7.88;;;5.95;;
49488;SDS011;35382;51.484;11.476;2023-05-10T09:36:30;7.63;;;6.20;;
49488;SDS011;35382;51.484;11.476;2023-05-10T09:38:11;7.57;;;5.97;;
49488;SDS011;35382;51.484;11.476;2023-05-10T09:39:52;7.28;;;5.60;;
49488;SDS011;35382;51.484;11.476;2023-05-10T09:41:35;8.95;;;6.03;;
49488;SDS011;35382;51.484;11.476;2023-05-10T09:43:17;7.45;;;5.50;;
49488;SDS011;35382;51.484;11.476;2023-05-10T09:45:03;7.07;;;5.68;;
49488;SDS011;35382;51.484;11.476;2023-05-10T09:46:49;8.43;;;5.68;;
49488;SDS011;35382;51.484;11.476;2023-05-10T09:48:31;8.27;;;6.70;;
49488;SDS011;35382;51.484;11.476;2023-05-10T09:50:12;7.75;;;5.78;;
49488;SDS011;35382;51.484;11.476;2023-05-10T09:52:03;7.43;;;6.10;;
49488;SDS011;35382;51.484;11.476;2023-05-10T09:53:47;8.63;;;6.60;;
49488;SDS011;35382;51.484;11.476;2023-05-10T09:57:23;6.65;;;5.32;;
49488;SDS011;35382;51.484;11.476;2023-05-10T10:00:45;9.63;;;6.18;;
49488;SDS011;35382;51.484;11.476;2023-05-10T10:02:30;7.53;;;5.05;;
49488;SDS011;35382;51.484;11.476;2023-05-10T10:04:11;7.63;;;5.97;;
49488;SDS011;35382;51.484;11.476;2023-05-10T10:05:57;7.85;;;4.97;;
49488;SDS011;35382;51.484;11.476;2023-05-10T10:07:41;7.38;;;5.70;;
49488;SDS011;35382;51.484;11.476;2023-05-10T10:09:22;8.15;;;5.72;;
49488;SDS011;35382;51.484;11.476;2023-05-10T10:11:07;7.00;;;5.63;;
49488;SDS011;35382;51.484;11.476;2023-05-10T10:12:54;7.30;;;5.85;;
49488;SDS011;35382;51.484;11.476;2023-05-10T10:14:40;7.68;;;5.85;;
49488;SDS011;35382;51.484;11.476;2023-05-10T10:16:22;8.48;;;5.75;;
49488;SDS011;35382;51.484;11.476;2023-05-10T10:18:05;7.78;;;5.60;;
49488;SDS011;35382;51.484;11.476;2023-05-10T10:19:46;7.70;;;5.80;;
49488;SDS011;35382;51.484;11.476;2023-05-10T10:21:28;7.38;;;6.03;;